createdAt,value
2019-03-31T00:01:21.912Z,16.02
2019-03-31T00:05:27.670Z,16.06
2019-03-31T00:09:33.395Z,16.03
2019-03-31T00:13:41.715Z,15.95
2019-03-31T00:17:47.436Z,15.81
2019-03-31T00:21:53.143Z,15.78
2019-03-31T00:25:58.851Z,15.81
2019-03-31T00:30:05.353Z,15.88
2019-03-31T00:34:23.754Z,15.95
2019-03-31T00:38:29.461Z,15.84
2019-03-31T00:42:35.159Z,15.62
2019-03-31T00:46:40.954Z,15.54
2019-03-31T00:50:46.734Z,15.57
2019-03-31T00:54:52.417Z,15.57
2019-03-31T00:58:58.264Z,15.47
2019-03-31T01:03:04.345Z,15.38
2019-03-31T01:07:11.409Z,15.41
2019-03-31T01:11:21.037Z,15.42
2019-03-31T01:15:27.094Z,15.38
2019-03-31T01:19:33.032Z,15.24
2019-03-31T01:23:38.776Z,15.26
2019-03-31T01:27:46.211Z,15.32
2019-03-31T01:31:53.207Z,15.36
2019-03-31T01:35:58.961Z,15.31
2019-03-31T01:40:06.770Z,15.22
2019-03-31T01:44:12.769Z,15.23
2019-03-31T01:48:18.543Z,15.17
2019-03-31T01:52:24.229Z,15.10
2019-03-31T01:56:31.575Z,15.04
2019-03-31T02:00:38.984Z,15.03
2019-03-31T02:04:44.687Z,14.99
2019-03-31T02:08:50.380Z,14.90
2019-03-31T02:12:56.061Z,14.93
2019-03-31T02:17:01.934Z,14.92
2019-03-31T02:21:07.707Z,14.84
2019-03-31T02:25:13.507Z,14.83
2019-03-31T02:29:19.202Z,14.85
2019-03-31T02:33:24.895Z,14.83
2019-03-31T02:37:30.596Z,14.80
2019-03-31T02:41:36.373Z,14.65
2019-03-31T02:45:42.072Z,14.60
2019-03-31T02:49:47.921Z,14.60
2019-03-31T02:53:53.667Z,14.60
2019-03-31T02:58:00.803Z,14.58
2019-03-31T03:02:06.842Z,14.52
2019-03-31T03:06:15.661Z,14.46
2019-03-31T03:10:24.135Z,14.53
2019-03-31T03:14:34.430Z,14.63
2019-03-31T03:18:41.214Z,14.58
2019-03-31T03:22:46.907Z,14.40
2019-03-31T03:26:52.625Z,14.36
2019-03-31T03:30:58.486Z,14.41
2019-03-31T03:35:05.047Z,14.34
2019-03-31T03:39:10.755Z,14.29
2019-03-31T03:43:16.510Z,14.16
2019-03-31T03:47:22.212Z,14.22
2019-03-31T03:51:28.407Z,14.24
2019-03-31T03:55:34.079Z,14.08
2019-03-31T03:59:39.780Z,14.01
2019-03-31T04:03:45.598Z,14.05
2019-03-31T04:07:51.298Z,14.11
2019-03-31T04:11:57.006Z,14.12
2019-03-31T04:16:02.701Z,13.95
2019-03-31T04:20:08.613Z,13.94
2019-03-31T04:24:14.304Z,14.02
2019-03-31T04:28:20.162Z,14.01
2019-03-31T04:32:25.865Z,13.97
2019-03-31T04:36:31.548Z,14.04
2019-03-31T04:40:37.257Z,14.00
2019-03-31T04:44:42.970Z,14.03
2019-03-31T04:48:48.736Z,13.92
2019-03-31T04:52:54.434Z,13.72
2019-03-31T04:57:00.124Z,13.56
2019-03-31T05:01:05.934Z,13.48
2019-03-31T05:05:11.633Z,13.50
2019-03-31T05:09:17.321Z,13.53
2019-03-31T05:13:23.016Z,13.55
2019-03-31T05:17:28.767Z,13.58
2019-03-31T05:21:34.513Z,13.59
2019-03-31T05:25:40.207Z,13.65
2019-03-31T05:29:45.898Z,13.67
2019-03-31T05:33:51.600Z,13.68
2019-03-31T05:37:57.281Z,13.72
2019-03-31T05:42:02.982Z,13.77
2019-03-31T05:46:08.734Z,13.70
2019-03-31T05:50:14.528Z,13.67
2019-03-31T05:54:20.231Z,13.74
2019-03-31T05:58:25.950Z,13.91
2019-03-31T06:02:31.706Z,13.94
2019-03-31T06:06:37.401Z,14.04
2019-03-31T06:10:43.112Z,14.18
2019-03-31T06:14:48.805Z,14.08
2019-03-31T06:18:54.500Z,13.93
2019-03-31T06:23:00.220Z,13.95
2019-03-31T06:27:05.934Z,14.30
2019-03-31T06:36:17.124Z,14.87
2019-03-31T06:40:22.890Z,15.14
2019-03-31T06:44:28.586Z,15.23
2019-03-31T06:48:34.301Z,15.65
2019-03-31T06:52:40.101Z,16.11
2019-03-31T06:56:47.263Z,16.44
2019-03-31T07:00:53.963Z,16.80
2019-03-31T07:05:01.058Z,16.85
2019-03-31T07:09:08.215Z,17.02
2019-03-31T07:13:13.990Z,17.15
2019-03-31T07:17:19.677Z,17.20
2019-03-31T07:21:25.385Z,17.48
2019-03-31T07:25:31.082Z,17.77
2019-03-31T07:29:36.795Z,17.81
2019-03-31T07:33:42.496Z,18.00
2019-03-31T07:37:48.209Z,18.52
2019-03-31T07:41:54.022Z,18.92
2019-03-31T07:45:59.798Z,19.31
2019-03-31T07:50:11.511Z,19.57
2019-03-31T07:54:17.212Z,19.91
2019-03-31T07:58:22.957Z,20.38
2019-03-31T08:02:28.707Z,20.69
2019-03-31T08:06:34.421Z,20.82
2019-03-31T08:10:40.128Z,21.07
2019-03-31T08:14:48.696Z,21.50
2019-03-31T08:18:54.390Z,21.80
2019-03-31T08:23:00.213Z,22.43
2019-03-31T08:27:05.950Z,22.62
2019-03-31T08:31:11.697Z,22.66
2019-03-31T08:35:17.867Z,22.99
2019-03-31T08:39:23.557Z,23.53
2019-03-31T08:43:29.313Z,24.13
2019-03-31T08:47:35.013Z,24.67
2019-03-31T08:51:41.801Z,24.94
2019-03-31T08:55:47.523Z,25.20
2019-03-31T08:59:53.195Z,25.68
2019-03-31T09:03:59.065Z,26.01
2019-03-31T09:08:04.820Z,26.53
2019-03-31T09:12:10.610Z,26.86
2019-03-31T09:16:16.319Z,27.33
2019-03-31T09:20:22.329Z,27.82
2019-03-31T09:24:28.041Z,28.11
2019-03-31T09:28:34.832Z,28.25
2019-03-31T09:32:40.748Z,28.57
2019-03-31T09:36:46.499Z,29.02
2019-03-31T09:40:52.236Z,29.44
2019-03-31T09:44:57.976Z,29.98
2019-03-31T09:49:04.038Z,30.11
2019-03-31T09:53:09.746Z,30.38
2019-03-31T09:57:15.457Z,30.60
2019-03-31T10:01:21.228Z,30.83
2019-03-31T10:05:26.931Z,31.15
2019-03-31T10:09:33.341Z,31.44
2019-03-31T10:13:39.067Z,31.66
2019-03-31T10:17:44.804Z,31.97
2019-03-31T10:21:50.556Z,32.14
2019-03-31T10:25:56.267Z,32.43
2019-03-31T10:30:02.031Z,32.82
2019-03-31T10:34:07.921Z,33.13
2019-03-31T10:38:13.661Z,33.39
2019-03-31T10:42:20.931Z,33.64
2019-03-31T10:46:26.792Z,34.09
2019-03-31T10:50:32.566Z,34.33
2019-03-31T10:54:38.261Z,34.69
2019-03-31T10:58:43.947Z,35.01
2019-03-31T11:02:49.691Z,35.35
2019-03-31T11:06:59.518Z,35.58
2019-03-31T11:11:02.875Z,35.94
2019-03-31T11:15:09.094Z,36.28
2019-03-31T11:19:14.783Z,36.20
2019-03-31T11:23:22.115Z,36.42
2019-03-31T11:27:27.827Z,36.68
2019-03-31T11:31:33.565Z,36.82
2019-03-31T11:35:39.272Z,37.17
2019-03-31T11:39:45.342Z,37.39
2019-03-31T11:43:51.062Z,37.27
2019-03-31T11:47:56.850Z,37.49
2019-03-31T11:52:02.553Z,37.21
2019-03-31T11:56:08.250Z,36.56
2019-03-31T12:00:25.128Z,36.42
2019-03-31T12:04:31.782Z,36.36
2019-03-31T12:08:37.496Z,35.75
2019-03-31T12:12:43.334Z,35.20
2019-03-31T12:16:49.053Z,34.23
2019-03-31T12:20:55.729Z,33.45
2019-03-31T12:25:01.406Z,32.38
2019-03-31T12:29:07.096Z,31.19
2019-03-31T12:33:13.838Z,30.58
2019-03-31T12:37:19.541Z,31.01
2019-03-31T12:41:25.229Z,30.73
2019-03-31T12:45:31.006Z,30.81
2019-03-31T12:49:36.702Z,30.44
2019-03-31T12:53:42.403Z,29.95
2019-03-31T12:57:51.517Z,30.27
2019-03-31T13:01:55.587Z,30.44
2019-03-31T13:06:01.478Z,31.09
2019-03-31T13:10:07.752Z,31.64
2019-03-31T13:14:13.458Z,31.20
2019-03-31T13:18:19.212Z,31.06
2019-03-31T13:22:24.925Z,30.95
2019-03-31T13:26:30.625Z,31.21
2019-03-31T13:30:36.497Z,32.00
2019-03-31T13:34:42.199Z,32.54
2019-03-31T13:38:47.894Z,32.52
2019-03-31T13:42:53.617Z,33.01
2019-03-31T13:46:59.389Z,33.12
2019-03-31T13:51:05.175Z,33.38
2019-03-31T13:55:16.626Z,33.49
2019-03-31T13:59:22.330Z,33.54
2019-03-31T14:04:15.906Z,33.58
2019-03-31T14:08:26.089Z,33.38
2019-03-31T14:13:17.280Z,33.00
2019-03-31T14:17:24.602Z,32.92
2019-03-31T14:22:15.026Z,32.76
2019-03-31T14:26:20.743Z,32.49
2019-03-31T14:30:26.542Z,32.15
2019-03-31T14:34:32.248Z,32.12
2019-03-31T14:38:40.248Z,32.01
2019-03-31T14:43:18.568Z,31.96
2019-03-31T14:47:24.334Z,31.82
2019-03-31T14:51:30.038Z,31.47
2019-03-31T14:55:35.997Z,31.23
2019-03-31T14:59:41.797Z,30.91
2019-03-31T15:04:18.034Z,30.78
2019-03-31T15:08:23.726Z,30.66
2019-03-31T15:12:29.403Z,29.76
2019-03-31T15:16:35.126Z,28.16
2019-03-31T15:20:40.826Z,27.05
2019-03-31T15:24:46.518Z,27.19
2019-03-31T15:28:52.361Z,27.32
2019-03-31T15:32:58.085Z,27.23
2019-03-31T15:37:03.775Z,26.58
2019-03-31T15:41:21.362Z,25.91
2019-03-31T15:45:25.648Z,25.95
2019-03-31T15:49:31.394Z,25.97
2019-03-31T15:53:37.108Z,26.05
2019-03-31T15:57:44.554Z,26.19
2019-03-31T16:01:50.258Z,26.24
2019-03-31T16:05:55.975Z,26.11
2019-03-31T16:10:01.728Z,26.07
2019-03-31T16:14:17.801Z,25.92
2019-03-31T16:18:23.516Z,25.71
2019-03-31T16:22:29.204Z,25.51
2019-03-31T16:26:34.924Z,25.38
2019-03-31T16:30:40.696Z,25.25
2019-03-31T16:34:46.421Z,25.10
2019-03-31T16:38:52.128Z,24.79
2019-03-31T16:42:57.834Z,24.59
2019-03-31T16:47:03.561Z,24.40
2019-03-31T16:51:09.403Z,24.06
2019-03-31T16:55:15.346Z,23.86
2019-03-31T16:59:21.130Z,23.70
2019-03-31T17:03:26.820Z,23.62
2019-03-31T17:07:32.540Z,23.47
2019-03-31T17:11:38.284Z,23.28
2019-03-31T17:15:44.176Z,23.16
2019-03-31T17:19:49.885Z,23.09
2019-03-31T17:23:55.649Z,23.01
2019-03-31T17:28:01.422Z,22.92
2019-03-31T17:33:06.162Z,23.50
2019-03-31T17:37:12.553Z,24.42
2019-03-31T17:41:18.268Z,24.82
2019-03-31T17:45:23.978Z,24.86
2019-03-31T17:49:29.719Z,24.58
2019-03-31T17:53:35.410Z,24.49
2019-03-31T17:57:42.501Z,24.44
2019-03-31T18:01:48.777Z,24.35
2019-03-31T18:05:54.497Z,24.29
2019-03-31T18:10:00.389Z,24.04
2019-03-31T18:15:14.693Z,23.97
2019-03-31T18:19:20.370Z,23.97
2019-03-31T18:24:17.023Z,23.94
2019-03-31T18:28:22.795Z,23.90
2019-03-31T18:32:28.504Z,23.88
2019-03-31T18:36:52.075Z,23.38
2019-03-31T18:40:57.876Z,23.57
2019-03-31T18:45:18.847Z,23.66
2019-03-31T18:49:24.623Z,23.67
2019-03-31T18:54:15.021Z,23.66
2019-03-31T18:58:26.011Z,23.64
2019-03-31T19:02:34.583Z,23.57
2019-03-31T19:06:40.085Z,23.55
2019-03-31T19:11:15.555Z,23.43
2019-03-31T19:15:34.843Z,23.36
2019-03-31T19:19:50.796Z,23.41
2019-03-31T19:24:19.321Z,23.43
2019-03-31T19:28:29.406Z,23.26
2019-03-31T19:33:28.774Z,23.17
2019-03-31T19:37:36.287Z,23.06
2019-03-31T19:42:36.508Z,23.15
2019-03-31T19:47:16.621Z,22.91
2019-03-31T19:51:35.536Z,22.78
2019-03-31T19:55:42.108Z,22.86
2019-03-31T20:00:19.494Z,22.67
2019-03-31T20:04:26.917Z,22.76
2019-03-31T20:08:34.251Z,22.93
2019-03-31T20:13:15.688Z,22.76
2019-03-31T20:17:28.575Z,22.57
2019-03-31T20:21:50.713Z,22.79
2019-03-31T20:26:18.939Z,22.75
2019-03-31T20:30:44.164Z,22.76
2019-03-31T20:35:16.136Z,22.72
2019-03-31T20:39:23.461Z,22.77
2019-03-31T20:43:31.882Z,22.53
2019-03-31T20:47:37.585Z,22.27
2019-03-31T20:51:44.308Z,22.43
2019-03-31T20:55:49.968Z,22.56
2019-03-31T21:00:19.613Z,22.44
2019-03-31T21:04:25.479Z,22.11
2019-03-31T21:08:31.173Z,21.89
2019-03-31T21:12:36.917Z,22.26
2019-03-31T21:16:42.656Z,22.51
2019-03-31T21:21:15.246Z,22.54
2019-03-31T21:25:20.972Z,22.60
2019-03-31T21:29:26.691Z,22.10
2019-03-31T21:33:32.426Z,21.47
2019-03-31T21:37:38.197Z,21.89
2019-03-31T21:41:43.892Z,21.73
2019-03-31T21:46:16.633Z,21.48
2019-03-31T21:50:22.882Z,21.64
2019-03-31T21:54:28.608Z,21.61
2019-03-31T21:58:34.323Z,21.70
2019-03-31T22:02:40.225Z,21.93
2019-03-31T22:06:46.012Z,22.04
2019-03-31T22:10:51.724Z,21.93
2019-03-31T22:15:18.477Z,21.95
2019-03-31T22:19:24.174Z,21.41
2019-03-31T22:23:31.502Z,21.43
2019-03-31T23:15:15.184Z,19.60
2019-03-31T23:24:30.693Z,18.97
2019-03-31T23:28:38.023Z,18.94
2019-03-31T23:32:43.746Z,18.76
2019-03-31T23:36:49.452Z,18.70
2019-03-31T23:40:55.165Z,17.61
2019-03-31T23:45:00.909Z,17.33
2019-03-31T23:49:06.656Z,17.08
2019-03-31T23:53:12.377Z,17.04
2019-03-31T23:57:18.068Z,17.42
